sensor_id;sensor_type;location;lat;lon;timestamp;P1;durP1;ratioP1;P2;durP2;ratioP2
27357;SDS011;14831;50.474;7.616;2023-06-22T00:00:58;11.0;;;10.0;;
27357;SDS011;14831;50.474;7.616;2023-06-22T00:05:56;11.0;;;10.0;;
27357;SDS011;14831;50.474;7.616;2023-06-22T00:10:56;9.7;;;8.8;;
27357;SDS011;14831;50.474;7.616;2023-06-22T00:15:56;9.7;;;8.8;;
27357;SDS011;14831;50.474;7.616;2023-06-22T00:20:56;9.7;;;8.8;;
27357;SDS011;14831;50.474;7.616;2023-06-22T00:25:56;9.7;;;8.8;;
27357;SDS011;14831;50.474;7.616;2023-06-22T00:30:56;9.7;;;8.8;;
27357;SDS011;14831;50.474;7.616;2023-06-22T00:35:57;9.7;;;8.8;;
27357;SDS011;14831;50.474;7.616;2023-06-22T00:40:56;10.8;;;9.8;;
27357;SDS011;14831;50.474;7.616;2023-06-22T00:45:56;10.8;;;9.8;;
27357;SDS011;14831;50.474;7.616;2023-06-22T00:50:56;10.8;;;9.8;;
27357;SDS011;14831;50.474;7.616;2023-06-22T00:55:56;10.8;;;9.8;;
27357;SDS011;14831;50.474;7.616;2023-06-22T01:00:57;10.8;;;9.8;;
27357;SDS011;14831;50.474;7.616;2023-06-22T01:06:02;10.8;;;9.8;;
27357;SDS011;14831;50.474;7.616;2023-06-22T01:11:04;12.3;;;10.7;;
27357;SDS011;14831;50.474;7.616;2023-06-22T01:16:00;12.3;;;10.7;;
27357;SDS011;14831;50.474;7.616;2023-06-22T01:20:57;12.3;;;10.7;;
27357;SDS011;14831;50.474;7.616;2023-06-22T01:26:05;12.3;;;10.7;;
27357;SDS011;14831;50.474;7.616;2023-06-22T01:30:57;12.3;;;10.7;;
27357;SDS011;14831;50.474;7.616;2023-06-22T01:35:57;12.3;;;10.7;;
27357;SDS011;14831;50.474;7.616;2023-06-22T01:40:57;11.5;;;10.3;;
27357;SDS011;14831;50.474;7.616;2023-06-22T01:45:58;11.5;;;10.3;;
27357;SDS011;14831;50.474;7.616;2023-06-22T01:50:57;11.5;;;10.3;;
27357;SDS011;14831;50.474;7.616;2023-06-22T01:55:56;11.5;;;10.3;;
27357;SDS011;14831;50.474;7.616;2023-06-22T02:01:00;11.5;;;10.3;;
27357;SDS011;14831;50.474;7.616;2023-06-22T02:06:06;11.5;;;10.3;;
27357;SDS011;14831;50.474;7.616;2023-06-22T02:10:57;10.5;;;9.4;;
27357;SDS011;14831;50.474;7.616;2023-06-22T02:15:57;10.5;;;9.4;;
27357;SDS011;14831;50.474;7.616;2023-06-22T02:20:56;10.5;;;9.4;;
27357;SDS011;14831;50.474;7.616;2023-06-22T02:25:56;10.5;;;9.4;;
27357;SDS011;14831;50.474;7.616;2023-06-22T02:30:56;10.5;;;9.4;;
27357;SDS011;14831;50.474;7.616;2023-06-22T02:35:56;10.5;;;9.4;;
27357;SDS011;14831;50.474;7.616;2023-06-22T02:40:56;10.3;;;9.3;;
27357;SDS011;14831;50.474;7.616;2023-06-22T02:45:56;10.3;;;9.3;;
27357;SDS011;14831;50.474;7.616;2023-06-22T02:50:56;10.3;;;9.3;;
27357;SDS011;14831;50.474;7.616;2023-06-22T02:55:56;10.3;;;9.3;;
27357;SDS011;14831;50.474;7.616;2023-06-22T03:00:56;10.3;;;9.3;;
27357;SDS011;14831;50.474;7.616;2023-06-22T03:05:56;10.3;;;9.3;;
27357;SDS011;14831;50.474;7.616;2023-06-22T03:10:56;12.0;;;10.0;;
27357;SDS011;14831;50.474;7.616;2023-06-22T03:15:56;12.0;;;10.0;;
27357;SDS011;14831;50.474;7.616;2023-06-22T03:20:56;12.0;;;10.0;;
27357;SDS011;14831;50.474;7.616;2023-06-22T03:25:56;12.0;;;10.0;;
27357;SDS011;14831;50.474;7.616;2023-06-22T03:30:57;12.0;;;10.0;;
27357;SDS011;14831;50.474;7.616;2023-06-22T03:35:56;12.0;;;10.0;;
27357;SDS011;14831;50.474;7.616;2023-06-22T03:40:56;10.3;;;9.3;;
27357;SDS011;14831;50.474;7.616;2023-06-22T03:45:56;10.3;;;9.3;;
27357;SDS011;14831;50.474;7.616;2023-06-22T03:50:58;10.3;;;9.3;;
27357;SDS011;14831;50.474;7.616;2023-06-22T03:55:56;10.3;;;9.3;;
27357;SDS011;14831;50.474;7.616;2023-06-22T04:00:56;10.3;;;9.3;;
27357;SDS011;14831;50.474;7.616;2023-06-22T04:05:56;10.3;;;9.3;;
27357;SDS011;14831;50.474;7.616;2023-06-22T04:10:56;10.2;;;9.2;;
27357;SDS011;14831;50.474;7.616;2023-06-22T04:15:56;10.2;;;9.2;;
27357;SDS011;14831;50.474;7.616;2023-06-22T04:20:56;10.2;;;9.2;;
27357;SDS011;14831;50.474;7.616;2023-06-22T04:25:56;10.2;;;9.2;;
27357;SDS011;14831;50.474;7.616;2023-06-22T04:30:56;10.2;;;9.2;;
27357;SDS011;14831;50.474;7.616;2023-06-22T04:35:56;10.2;;;9.2;;
27357;SDS011;14831;50.474;7.616;2023-06-22T04:40:56;11.3;;;10.2;;
27357;SDS011;14831;50.474;7.616;2023-06-22T04:45:56;11.3;;;10.2;;
27357;SDS011;14831;50.474;7.616;2023-06-22T04:50:56;11.3;;;10.2;;
27357;SDS011;14831;50.474;7.616;2023-06-22T04:55:57;11.3;;;10.2;;
27357;SDS011;14831;50.474;7.616;2023-06-22T05:00:56;11.3;;;10.2;;
27357;SDS011;14831;50.474;7.616;2023-06-22T05:05:56;11.3;;;10.2;;
27357;SDS011;14831;50.474;7.616;2023-06-22T05:10:56;12.0;;;10.8;;
27357;SDS011;14831;50.474;7.616;2023-06-22T05:15:56;12.0;;;10.8;;
27357;SDS011;14831;50.474;7.616;2023-06-22T05:20:58;12.0;;;10.8;;
27357;SDS011;14831;50.474;7.616;2023-06-22T05:25:56;12.0;;;10.8;;
27357;SDS011;14831;50.474;7.616;2023-06-22T05:30:56;12.0;;;10.8;;
27357;SDS011;14831;50.474;7.616;2023-06-22T05:35:56;12.0;;;10.8;;
27357;SDS011;14831;50.474;7.616;2023-06-22T05:40:56;13.0;;;11.7;;
27357;SDS011;14831;50.474;7.616;2023-06-22T05:45:57;13.0;;;11.7;;
27357;SDS011;14831;50.474;7.616;2023-06-22T05:50:57;13.0;;;11.7;;
27357;SDS011;14831;50.474;7.616;2023-06-22T05:55:56;13.0;;;11.7;;
27357;SDS011;14831;50.474;7.616;2023-06-22T06:00:56;13.0;;;11.7;;
27357;SDS011;14831;50.474;7.616;2023-06-22T06:05:57;13.0;;;11.7;;
27357;SDS011;14831;50.474;7.616;2023-06-22T06:10:56;10.5;;;9.5;;
27357;SDS011;14831;50.474;7.616;2023-06-22T06:15:57;10.5;;;9.5;;
27357;SDS011;14831;50.474;7.616;2023-06-22T06:20:56;10.5;;;9.5;;
27357;SDS011;14831;50.474;7.616;2023-06-22T06:25:56;10.5;;;9.5;;
27357;SDS011;14831;50.474;7.616;2023-06-22T06:30:56;10.5;;;9.5;;
27357;SDS011;14831;50.474;7.616;2023-06-22T06:35:56;10.5;;;9.5;;
27357;SDS011;14831;50.474;7.616;2023-06-22T06:40:58;21.4;;;14.4;;
27357;SDS011;14831;50.474;7.616;2023-06-22T06:45:56;21.4;;;14.4;;
27357;SDS011;14831;50.474;7.616;2023-06-22T06:50:56;21.4;;;14.4;;
27357;SDS011;14831;50.474;7.616;2023-06-22T06:55:56;21.4;;;14.4;;
27357;SDS011;14831;50.474;7.616;2023-06-22T07:00:56;21.4;;;14.4;;
27357;SDS011;14831;50.474;7.616;2023-06-22T07:05:56;21.4;;;14.4;;
27357;SDS011;14831;50.474;7.616;2023-06-22T07:10:57;17.8;;;13.7;;
27357;SDS011;14831;50.474;7.616;2023-06-22T07:15:56;17.8;;;13.7;;
27357;SDS011;14831;50.474;7.616;2023-06-22T07:20:56;17.8;;;13.7;;
27357;SDS011;14831;50.474;7.616;2023-06-22T07:25:56;17.8;;;13.7;;
27357;SDS011;14831;50.474;7.616;2023-06-22T07:30:56;17.8;;;13.7;;
27357;SDS011;14831;50.474;7.616;2023-06-22T07:35:56;17.8;;;13.7;;
27357;SDS011;14831;50.474;7.616;2023-06-22T07:40:56;10.9;;;9.8;;
27357;SDS011;14831;50.474;7.616;2023-06-22T07:45:56;10.9;;;9.8;;
27357;SDS011;14831;50.474;7.616;2023-06-22T07:50:56;10.9;;;9.8;;
27357;SDS011;14831;50.474;7.616;2023-06-22T07:55:56;10.9;;;9.8;;
27357;SDS011;14831;50.474;7.616;2023-06-22T08:00:56;10.9;;;9.8;;
27357;SDS011;14831;50.474;7.616;2023-06-22T08:05:56;10.9;;;9.8;;
27357;SDS011;14831;50.474;7.616;2023-06-22T08:10:57;9.6;;;8.7;;
27357;SDS011;14831;50.474;7.616;2023-06-22T08:15:56;9.6;;;8.7;;
27357;SDS011;14831;50.474;7.616;2023-06-22T08:20:56;9.6;;;8.7;;
27357;SDS011;14831;50.474;7.616;2023-06-22T08:25:56;9.6;;;8.7;;
27357;SDS011;14831;50.474;7.616;2023-06-22T08:30:56;9.6;;;8.7;;
27357;SDS011;14831;50.474;7.616;2023-06-22T08:35:58;9.6;;;8.7;;
27357;SDS011;14831;50.474;7.616;2023-06-22T08:40:56;9.8;;;8.9;;
27357;SDS011;14831;50.474;7.616;2023-06-22T08:45:56;9.8;;;8.9;;
27357;SDS011;14831;50.474;7.616;2023-06-22T08:50:56;9.8;;;8.9;;
27357;SDS011;14831;50.474;7.616;2023-06-22T08:55:56;9.8;;;8.9;;
27357;SDS011;14831;50.474;7.616;2023-06-22T09:00:56;9.8;;;8.9;;
27357;SDS011;14831;50.474;7.616;2023-06-22T09:05:56;9.8;;;8.9;;
27357;SDS011;14831;50.474;7.616;2023-06-22T09:10:56;9.4;;;8.4;;
27357;SDS011;14831;50.474;7.616;2023-06-22T09:15:57;9.4;;;8.4;;
27357;SDS011;14831;50.474;7.616;2023-06-22T09:20:56;9.4;;;8.4;;
27357;SDS011;14831;50.474;7.616;2023-06-22T09:25:56;9.4;;;8.4;;
27357;SDS011;14831;50.474;7.616;2023-06-22T09:30:56;9.4;;;8.4;;
27357;SDS011;14831;50.474;7.616;2023-06-22T09:35:56;9.4;;;8.4;;
27357;SDS011;14831;50.474;7.616;2023-06-22T09:40:56;9.0;;;8.2;;
27357;SDS011;14831;50.474;7.616;2023-06-22T09:45:56;9.0;;;8.2;;
27357;SDS011;14831;50.474;7.616;2023-06-22T09:50:56;9.0;;;8.2;;
27357;SDS011;14831;50.474;7.616;2023-06-22T09:55:56;9.0;;;8.2;;
27357;SDS011;14831;50.474;7.616;2023-06-22T10:00:56;9.0;;;8.2;;
27357;SDS011;14831;50.474;7.616;2023-06-22T10:05:56;9.0;;;8.2;;
27357;SDS011;14831;50.474;7.616;2023-06-22T10:10:56;10.4;;;9.4;;
27357;SDS011;14831;50.474;7.616;2023-06-22T10:15:56;10.4;;;9.4;;
27357;SDS011;14831;50.474;7.616;2023-06-22T10:20:56;10.4;;;9.4;;
27357;SDS011;14831;50.474;7.616;2023-06-22T10:25:56;10.4;;;9.4;;
27357;SDS011;14831;50.474;7.616;2023-06-22T10:30:56;10.4;;;9.4;;
27357;SDS011;14831;50.474;7.616;2023-06-22T10:35:56;10.4;;;9.4;;
27357;SDS011;14831;50.474;7.616;2023-06-22T10:40:56;11.2;;;10.0;;
27357;SDS011;14831;50.474;7.616;2023-06-22T10:45:56;11.2;;;10.0;;
27357;SDS011;14831;50.474;7.616;2023-06-22T10:50:56;11.2;;;10.0;;
27357;SDS011;14831;50.474;7.616;2023-06-22T10:55:56;11.2;;;10.0;;
27357;SDS011;14831;50.474;7.616;2023-06-22T11:00:56;11.2;;;10.0;;
27357;SDS011;14831;50.474;7.616;2023-06-22T11:05:56;11.2;;;10.0;;
27357;SDS011;14831;50.474;7.616;2023-06-22T11:10:56;10.9;;;9.8;;
27357;SDS011;14831;50.474;7.616;2023-06-22T11:15:56;10.9;;;9.8;;
27357;SDS011;14831;50.474;7.616;2023-06-22T11:20:56;10.9;;;9.8;;
27357;SDS011;14831;50.474;7.616;2023-06-22T11:25:56;10.9;;;9.8;;
27357;SDS011;14831;50.474;7.616;2023-06-22T11:30:56;10.9;;;9.8;;
27357;SDS011;14831;50.474;7.616;2023-06-22T11:35:56;10.9;;;9.8;;
27357;SDS011;14831;50.474;7.616;2023-06-22T11:40:58;10.0;;;9.1;;
27357;SDS011;14831;50.474;7.616;2023-06-22T11:45:57;10.0;;;9.1;;
27357;SDS011;14831;50.474;7.616;2023-06-22T11:50:56;10.0;;;9.1;;
27357;SDS011;14831;50.474;7.616;2023-06-22T11:55:56;10.0;;;9.1;;
27357;SDS011;14831;50.474;7.616;2023-06-22T12:00:56;10.0;;;9.1;;
27357;SDS011;14831;50.474;7.616;2023-06-22T12:05:56;10.0;;;9.1;;
27357;SDS011;14831;50.474;7.616;2023-06-22T12:10:56;8.8;;;8.1;;
27357;SDS011;14831;50.474;7.616;2023-06-22T12:15:56;8.8;;;8.1;;
27357;SDS011;14831;50.474;7.616;2023-06-22T12:20:56;8.8;;;8.1;;
27357;SDS011;14831;50.474;7.616;2023-06-22T12:25:56;8.8;;;8.1;;
27357;SDS011;14831;50.474;7.616;2023-06-22T12:30:56;8.8;;;8.1;;
27357;SDS011;14831;50.474;7.616;2023-06-22T12:35:56;8.8;;;8.1;;
27357;SDS011;14831;50.474;7.616;2023-06-22T12:40:56;8.6;;;7.9;;
27357;SDS011;14831;50.474;7.616;2023-06-22T12:45:56;8.6;;;7.9;;
27357;SDS011;14831;50.474;7.616;2023-06-22T12:50:57;8.6;;;7.9;;
27357;SDS011;14831;50.474;7.616;2023-06-22T12:55:56;8.6;;;7.9;;
27357;SDS011;14831;50.474;7.616;2023-06-22T13:00:56;8.6;;;7.9;;
27357;SDS011;14831;50.474;7.616;2023-06-22T13:05:56;8.6;;;7.9;;
27357;SDS011;14831;50.474;7.616;2023-06-22T13:10:56;7.7;;;7.1;;
27357;SDS011;14831;50.474;7.616;2023-06-22T13:15:56;7.7;;;7.1;;
27357;SDS011;14831;50.474;7.616;2023-06-22T13:20:56;7.7;;;7.1;;
27357;SDS011;14831;50.474;7.616;2023-06-22T13:25:58;7.7;;;7.1;;
27357;SDS011;14831;50.474;7.616;2023-06-22T13:30:56;7.7;;;7.1;;
27357;SDS011;14831;50.474;7.616;2023-06-22T13:35:56;7.7;;;7.1;;
27357;SDS011;14831;50.474;7.616;2023-06-22T13:40:56;8.4;;;7.6;;
27357;SDS011;14831;50.474;7.616;2023-06-22T13:45:56;8.4;;;7.6;;
27357;SDS011;14831;50.474;7.616;2023-06-22T13:50:57;8.4;;;7.6;;
27357;SDS011;14831;50.474;7.616;2023-06-22T13:55:56;8.4;;;7.6;;
27357;SDS011;14831;50.474;7.616;2023-06-22T14:00:56;8.4;;;7.6;;
27357;SDS011;14831;50.474;7.616;2023-06-22T14:05:56;8.4;;;7.6;;
27357;SDS011;14831;50.474;7.616;2023-06-22T14:10:56;9.3;;;8.3;;
27357;SDS011;14831;50.474;7.616;2023-06-22T14:15:56;9.3;;;8.3;;
27357;SDS011;14831;50.474;7.616;2023-06-22T14:20:56;9.3;;;8.3;;
27357;SDS011;14831;50.474;7.616;2023-06-22T14:25:56;9.3;;;8.3;;
27357;SDS011;14831;50.474;7.616;2023-06-22T14:30:57;9.3;;;8.3;;
27357;SDS011;14831;50.474;7.616;2023-06-22T14:35:56;9.3;;;8.3;;
27357;SDS011;14831;50.474;7.616;2023-06-22T14:40:56;9.0;;;8.1;;
27357;SDS011;14831;50.474;7.616;2023-06-22T14:45:56;9.0;;;8.1;;
27357;SDS011;14831;50.474;7.616;2023-06-22T14:50:56;9.0;;;8.1;;
27357;SDS011;14831;50.474;7.616;2023-06-22T14:55:56;9.0;;;8.1;;
27357;SDS011;14831;50.474;7.616;2023-06-22T15:00:56;9.0;;;8.1;;
27357;SDS011;14831;50.474;7.616;2023-06-22T15:05:56;9.0;;;8.1;;
27357;SDS011;14831;50.474;7.616;2023-06-22T15:10:59;8.0;;;7.3;;
27357;SDS011;14831;50.474;7.616;2023-06-22T15:15:56;8.0;;;7.3;;
27357;SDS011;14831;50.474;7.616;2023-06-22T15:20:56;8.0;;;7.3;;
27357;SDS011;14831;50.474;7.616;2023-06-22T15:25:56;8.0;;;7.3;;
27357;SDS011;14831;50.474;7.616;2023-06-22T15:30:56;8.0;;;7.3;;
27357;SDS011;14831;50.474;7.616;2023-06-22T15:35:56;8.0;;;7.3;;
27357;SDS011;14831;50.474;7.616;2023-06-22T15:40:56;6.8;;;6.2;;
27357;SDS011;14831;50.474;7.616;2023-06-22T15:45:56;6.8;;;6.2;;
27357;SDS011;14831;50.474;7.616;2023-06-22T15:50:56;6.8;;;6.2;;
27357;SDS011;14831;50.474;7.616;2023-06-22T15:55:56;6.8;;;6.2;;
27357;SDS011;14831;50.474;7.616;2023-06-22T16:00:56;6.8;;;6.2;;
27357;SDS011;14831;50.474;7.616;2023-06-22T16:05:57;6.8;;;6.2;;
27357;SDS011;14831;50.474;7.616;2023-06-22T16:10:56;6.7;;;6.0;;
27357;SDS011;14831;50.474;7.616;2023-06-22T16:15:56;6.7;;;6.0;;
27357;SDS011;14831;50.474;7.616;2023-06-22T16:20:57;6.7;;;6.0;;
27357;SDS011;14831;50.474;7.616;2023-06-22T16:25:56;6.7;;;6.0;;
27357;SDS011;14831;50.474;7.616;2023-06-22T16:30:56;6.7;;;6.0;;
27357;SDS011;14831;50.474;7.616;2023-06-22T16:35:56;6.7;;;6.0;;
27357;SDS011;14831;50.474;7.616;2023-06-22T16:40:56;5.9;;;5.3;;
27357;SDS011;14831;50.474;7.616;2023-06-22T16:45:56;5.9;;;5.3;;
27357;SDS011;14831;50.474;7.616;2023-06-22T16:50:56;5.9;;;5.3;;
27357;SDS011;14831;50.474;7.616;2023-06-22T16:55:57;5.9;;;5.3;;
27357;SDS011;14831;50.474;7.616;2023-06-22T17:00:57;5.9;;;5.3;;
27357;SDS011;14831;50.474;7.616;2023-06-22T17:05:57;5.9;;;5.3;;
27357;SDS011;14831;50.474;7.616;2023-06-22T17:10:57;5.8;;;4.4;;
27357;SDS011;14831;50.474;7.616;2023-06-22T17:16:01;5.8;;;4.4;;
27357;SDS011;14831;50.474;7.616;2023-06-22T17:20:56;5.8;;;4.4;;
27357;SDS011;14831;50.474;7.616;2023-06-22T17:25:58;5.8;;;4.4;;
27357;SDS011;14831;50.474;7.616;2023-06-22T17:31:08;5.8;;;4.4;;
27357;SDS011;14831;50.474;7.616;2023-06-22T17:35:56;5.8;;;4.4;;
27357;SDS011;14831;50.474;7.616;2023-06-22T17:41:00;4.9;;;3.5;;
27357;SDS011;14831;50.474;7.616;2023-06-22T17:45:59;4.9;;;3.5;;
27357;SDS011;14831;50.474;7.616;2023-06-22T17:50:56;4.9;;;3.5;;
27357;SDS011;14831;50.474;7.616;2023-06-22T17:55:59;4.9;;;3.5;;
27357;SDS011;14831;50.474;7.616;2023-06-22T18:00:56;4.9;;;3.5;;
27357;SDS011;14831;50.474;7.616;2023-06-22T18:05:56;4.9;;;3.5;;
27357;SDS011;14831;50.474;7.616;2023-06-22T18:10:58;5.1;;;3.6;;
27357;SDS011;14831;50.474;7.616;2023-06-22T18:15:56;5.1;;;3.6;;
27357;SDS011;14831;50.474;7.616;2023-06-22T18:20:59;5.1;;;3.6;;
27357;SDS011;14831;50.474;7.616;2023-06-22T18:25:56;5.1;;;3.6;;
27357;SDS011;14831;50.474;7.616;2023-06-22T18:30:57;5.1;;;3.6;;
27357;SDS011;14831;50.474;7.616;2023-06-22T18:35:57;5.1;;;3.6;;
27357;SDS011;14831;50.474;7.616;2023-06-22T18:40:57;3.5;;;3.2;;
27357;SDS011;14831;50.474;7.616;2023-06-22T18:46:29;3.5;;;3.2;;
27357;SDS011;14831;50.474;7.616;2023-06-22T18:51:10;3.5;;;3.2;;
27357;SDS011;14831;50.474;7.616;2023-06-22T18:56:11;3.5;;;3.2;;
27357;SDS011;14831;50.474;7.616;2023-06-22T19:01:15;3.5;;;3.2;;
27357;SDS011;14831;50.474;7.616;2023-06-22T19:05:57;3.5;;;3.2;;
27357;SDS011;14831;50.474;7.616;2023-06-22T19:11:11;3.5;;;2.8;;
27357;SDS011;14831;50.474;7.616;2023-06-22T19:15:59;3.5;;;2.8;;
27357;SDS011;14831;50.474;7.616;2023-06-22T19:20:59;3.5;;;2.8;;
27357;SDS011;14831;50.474;7.616;2023-06-22T19:25:57;3.5;;;2.8;;
27357;SDS011;14831;50.474;7.616;2023-06-22T19:30:57;3.5;;;2.8;;
27357;SDS011;14831;50.474;7.616;2023-06-22T19:35:59;3.5;;;2.8;;
27357;SDS011;14831;50.474;7.616;2023-06-22T19:40:57;3.1;;;2.8;;
27357;SDS011;14831;50.474;7.616;2023-06-22T19:45:57;3.1;;;2.8;;
27357;SDS011;14831;50.474;7.616;2023-06-22T19:51:02;3.1;;;2.8;;
27357;SDS011;14831;50.474;7.616;2023-06-22T19:55:57;3.1;;;2.8;;
27357;SDS011;14831;50.474;7.616;2023-06-22T20:00:59;3.1;;;2.8;;
27357;SDS011;14831;50.474;7.616;2023-06-22T20:06:08;3.1;;;2.8;;
27357;SDS011;14831;50.474;7.616;2023-06-22T20:10:57;5.4;;;2.5;;
27357;SDS011;14831;50.474;7.616;2023-06-22T20:15:56;5.4;;;2.5;;
27357;SDS011;14831;50.474;7.616;2023-06-22T20:20:56;5.4;;;2.5;;
27357;SDS011;14831;50.474;7.616;2023-06-22T20:25:56;5.4;;;2.5;;
27357;SDS011;14831;50.474;7.616;2023-06-22T20:31:01;5.4;;;2.5;;
27357;SDS011;14831;50.474;7.616;2023-06-22T20:35:57;5.4;;;2.5;;
27357;SDS011;14831;50.474;7.616;2023-06-22T20:40:56;4.0;;;1.3;;
27357;SDS011;14831;50.474;7.616;2023-06-22T20:45:56;4.0;;;1.3;;
27357;SDS011;14831;50.474;7.616;2023-06-22T20:50:56;4.0;;;1.3;;
27357;SDS011;14831;50.474;7.616;2023-06-22T20:55:56;4.0;;;1.3;;
27357;SDS011;14831;50.474;7.616;2023-06-22T21:00:56;4.0;;;1.3;;
27357;SDS011;14831;50.474;7.616;2023-06-22T21:05:56;4.0;;;1.3;;
27357;SDS011;14831;50.474;7.616;2023-06-22T21:10:56;3.2;;;2.8;;
27357;SDS011;14831;50.474;7.616;2023-06-22T21:15:56;3.2;;;2.8;;
27357;SDS011;14831;50.474;7.616;2023-06-22T21:20:56;3.2;;;2.8;;
27357;SDS011;14831;50.474;7.616;2023-06-22T21:25:56;3.2;;;2.8;;
27357;SDS011;14831;50.474;7.616;2023-06-22T21:30:56;3.2;;;2.8;;
27357;SDS011;14831;50.474;7.616;2023-06-22T21:35:56;3.2;;;2.8;;
27357;SDS011;14831;50.474;7.616;2023-06-22T21:40:57;5.8;;;5.2;;
27357;SDS011;14831;50.474;7.616;2023-06-22T21:45:56;5.8;;;5.2;;
27357;SDS011;14831;50.474;7.616;2023-06-22T21:50:56;5.8;;;5.2;;
27357;SDS011;14831;50.474;7.616;2023-06-22T21:55:56;5.8;;;5.2;;
27357;SDS011;14831;50.474;7.616;2023-06-22T22:00:56;5.8;;;5.2;;
27357;SDS011;14831;50.474;7.616;2023-06-22T22:05:57;5.8;;;5.2;;
27357;SDS011;14831;50.474;7.616;2023-06-22T22:10:56;5.8;;;5.3;;
27357;SDS011;14831;50.474;7.616;2023-06-22T22:15:56;5.8;;;5.3;;
27357;SDS011;14831;50.474;7.616;2023-06-22T22:20:56;5.8;;;5.3;;
27357;SDS011;14831;50.474;7.616;2023-06-22T22:25:56;5.8;;;5.3;;
27357;SDS011;14831;50.474;7.616;2023-06-22T22:30:57;5.8;;;5.3;;
27357;SDS011;14831;50.474;7.616;2023-06-22T22:35:56;5.8;;;5.3;;
27357;SDS011;14831;50.474;7.616;2023-06-22T22:40:56;6.0;;;5.5;;
27357;SDS011;14831;50.474;7.616;2023-06-22T22:45:56;6.0;;;5.5;;
27357;SDS011;14831;50.474;7.616;2023-06-22T22:50:56;6.0;;;5.5;;
27357;SDS011;14831;50.474;7.616;2023-06-22T22:55:56;6.0;;;5.5;;
27357;SDS011;14831;50.474;7.616;2023-06-22T23:00:56;6.0;;;5.5;;
27357;SDS011;14831;50.474;7.616;2023-06-22T23:05:56;6.0;;;5.5;;
27357;SDS011;14831;50.474;7.616;2023-06-22T23:10:56;6.8;;;5.8;;
27357;SDS011;14831;50.474;7.616;2023-06-22T23:15:56;6.8;;;5.8;;
27357;SDS011;14831;50.474;7.616;2023-06-22T23:20:56;6.8;;;5.8;;
27357;SDS011;14831;50.474;7.616;2023-06-22T23:25:56;6.8;;;5.8;;
27357;SDS011;14831;50.474;7.616;2023-06-22T23:30:56;6.8;;;5.8;;
27357;SDS011;14831;50.474;7.616;2023-06-22T23:35:56;6.8;;;5.8;;
27357;SDS011;14831;50.474;7.616;2023-06-22T23:40:56;6.2;;;5.6;;
27357;SDS011;14831;50.474;7.616;2023-06-22T23:45:57;6.2;;;5.6;;
27357;SDS011;14831;50.474;7.616;2023-06-22T23:50:56;6.2;;;5.6;;
27357;SDS011;14831;50.474;7.616;2023-06-22T23:55:57;6.2;;;5.6;;
